sensor_id;sensor_type;location;lat;lon;timestamp;pressure;altitude;pressure_sealevel;temperature;humidity
11190;BME280;5651;50.926;4.718;2023-02-18T00:01:15;102284.47;;;11.60;100.00
11190;BME280;5651;50.926;4.718;2023-02-18T00:03:42;102275.78;;;11.60;100.00
11190;BME280;5651;50.926;4.718;2023-02-18T00:06:22;102285.47;;;11.68;100.00
11190;BME280;5651;50.926;4.718;2023-02-18T00:08:49;102272.31;;;11.59;100.00
11190;BME280;5651;50.926;4.718;2023-02-18T00:11:16;102273.16;;;11.58;100.00
11190;BME280;5651;50.926;4.718;2023-02-18T00:13:42;102266.16;;;11.57;100.00
11190;BME280;5651;50.926;4.718;2023-02-18T00:16:10;102260.94;;;11.57;100.00
11190;BME280;5651;50.926;4.718;2023-02-18T00:18:37;102257.56;;;11.64;100.00
11190;BME280;5651;50.926;4.718;2023-02-18T00:21:04;102265.41;;;11.64;100.00
11190;BME280;5651;50.926;4.718;2023-02-18T00:23:31;102257.44;;;11.55;100.00
11190;BME280;5651;50.926;4.718;2023-02-18T00:26:01;102242.69;;;11.60;100.00
11190;BME280;5651;50.926;4.718;2023-02-18T00:28:27;102244.44;;;11.58;100.00
11190;BME280;5651;50.926;4.718;2023-02-18T00:30:53;102246.16;;;11.57;100.00
11190;BME280;5651;50.926;4.718;2023-02-18T00:33:19;102237.47;;;11.60;100.00
11190;BME280;5651;50.926;4.718;2023-02-18T00:35:45;102227.88;;;11.57;100.00
11190;BME280;5651;50.926;4.718;2023-02-18T00:38:10;102220.88;;;11.53;100.00
11190;BME280;5651;50.926;4.718;2023-02-18T00:40:37;102221.78;;;11.58;100.00
11190;BME280;5651;50.926;4.718;2023-02-18T00:43:03;102219.16;;;11.55;100.00
11190;BME280;5651;50.926;4.718;2023-02-18T00:45:29;102221.66;;;11.49;100.00
11190;BME280;5651;50.926;4.718;2023-02-18T00:47:54;102218.13;;;11.46;100.00
11190;BME280;5651;50.926;4.718;2023-02-18T00:50:20;102216.50;;;11.54;100.00
11190;BME280;5651;50.926;4.718;2023-02-18T00:52:49;102214.72;;;11.50;100.00
11190;BME280;5651;50.926;4.718;2023-02-18T00:55:15;102210.44;;;11.53;100.00
11190;BME280;5651;50.926;4.718;2023-02-18T00:57:41;102211.34;;;11.57;100.00
11190;BME280;5651;50.926;4.718;2023-02-18T01:00:07;102211.28;;;11.54;100.00
11190;BME280;5651;50.926;4.718;2023-02-18T01:02:33;102196.53;;;11.57;100.00
11190;BME280;5651;50.926;4.718;2023-02-18T01:04:59;102193.78;;;11.47;100.00
11190;BME280;5651;50.926;4.718;2023-02-18T01:07:25;102181.66;;;11.52;100.00
11190;BME280;5651;50.926;4.718;2023-02-18T01:09:51;102178.19;;;11.53;100.00
11190;BME280;5651;50.926;4.718;2023-02-18T01:12:17;102192.16;;;11.56;100.00
11190;BME280;5651;50.926;4.718;2023-02-18T01:14:43;102192.22;;;11.58;100.00
11190;BME280;5651;50.926;4.718;2023-02-18T01:17:09;102188.69;;;11.56;100.00
11190;BME280;5651;50.926;4.718;2023-02-18T01:19:35;102180.75;;;11.47;100.00
11190;BME280;5651;50.926;4.718;2023-02-18T01:22:01;102184.25;;;11.49;100.00
11190;BME280;5651;50.926;4.718;2023-02-18T01:24:26;102169.44;;;11.48;100.00
11190;BME280;5651;50.926;4.718;2023-02-18T01:26:52;102173.69;;;11.39;100.00
11190;BME280;5651;50.926;4.718;2023-02-18T01:29:18;102179.03;;;11.50;100.00
11190;BME280;5651;50.926;4.718;2023-02-18T01:31:43;102181.59;;;11.46;100.00
11190;BME280;5651;50.926;4.718;2023-02-18T01:34:09;102183.47;;;11.56;100.00
11190;BME280;5651;50.926;4.718;2023-02-18T01:36:34;102179.06;;;11.52;100.00
11190;BME280;5651;50.926;4.718;2023-02-18T01:39:00;102181.78;;;11.58;100.00
11190;BME280;5651;50.926;4.718;2023-02-18T01:41:26;102185.22;;;11.55;100.00
11190;BME280;5651;50.926;4.718;2023-02-18T01:46:36;102172.13;;;11.54;100.00
11190;BME280;5651;50.926;4.718;2023-02-18T01:49:02;102168.63;;;11.52;100.00
11190;BME280;5651;50.926;4.718;2023-02-18T01:51:34;102173.03;;;11.57;100.00
11190;BME280;5651;50.926;4.718;2023-02-18T01:54:07;102169.47;;;11.49;100.00
11190;BME280;5651;50.926;4.718;2023-02-18T01:59:13;102170.44;;;11.56;100.00
11190;BME280;5651;50.926;4.718;2023-02-18T02:01:44;102164.34;;;11.57;100.00
11190;BME280;5651;50.926;4.718;2023-02-18T02:04:11;102159.19;;;11.63;100.00
11190;BME280;5651;50.926;4.718;2023-02-18T02:06:37;102156.47;;;11.52;100.00
11190;BME280;5651;50.926;4.718;2023-02-18T02:09:05;102163.47;;;11.56;100.00
11190;BME280;5651;50.926;4.718;2023-02-18T02:12:00;102150.41;;;11.55;100.00
11190;BME280;5651;50.926;4.718;2023-02-18T02:40:37;102118.88;;;11.39;100.00
11190;BME280;5651;50.926;4.718;2023-02-18T02:46:34;102112.84;;;11.44;100.00
11190;BME280;5651;50.926;4.718;2023-02-18T02:49:27;102114.56;;;11.41;100.00
11190;BME280;5651;50.926;4.718;2023-02-18T02:54:27;102103.28;;;11.43;100.00
11190;BME280;5651;50.926;4.718;2023-02-18T03:00:04;102097.97;;;11.36;100.00
11190;BME280;5651;50.926;4.718;2023-02-18T03:10:52;102092.81;;;11.43;100.00
11190;BME280;5651;50.926;4.718;2023-02-18T03:21:38;102078.53;;;11.13;100.00
11190;BME280;5651;50.926;4.718;2023-02-18T03:24:12;102076.00;;;11.20;100.00
11190;BME280;5651;50.926;4.718;2023-02-18T03:26:44;102075.22;;;11.28;100.00
11190;BME280;5651;50.926;4.718;2023-02-18T03:29:13;102066.47;;;11.22;100.00
11190;BME280;5651;50.926;4.718;2023-02-18T03:31:42;102069.97;;;11.23;100.00
11190;BME280;5651;50.926;4.718;2023-02-18T03:34:14;102061.25;;;11.21;100.00
11190;BME280;5651;50.926;4.718;2023-02-18T03:36:42;102065.59;;;11.20;100.00
11190;BME280;5651;50.926;4.718;2023-02-18T03:39:14;102057.69;;;11.14;100.00
11190;BME280;5651;50.926;4.718;2023-02-18T03:41:41;102050.78;;;11.18;100.00
11190;BME280;5651;50.926;4.718;2023-02-18T03:44:08;102047.25;;;11.13;100.00
11190;BME280;5651;50.926;4.718;2023-02-18T03:46:35;102047.16;;;11.06;100.00
11190;BME280;5651;50.926;4.718;2023-02-18T03:49:02;102048.00;;;11.05;100.00
11190;BME280;5651;50.926;4.718;2023-02-18T03:51:28;102049.78;;;11.09;100.00
11190;BME280;5651;50.926;4.718;2023-02-18T03:53:54;102051.63;;;11.17;100.00
11190;BME280;5651;50.926;4.718;2023-02-18T03:56:20;102036.81;;;11.14;100.00
11190;BME280;5651;50.926;4.718;2023-02-18T03:58:46;102030.75;;;11.17;100.00
11190;BME280;5651;50.926;4.718;2023-02-18T04:01:11;102034.91;;;11.02;100.00
11190;BME280;5651;50.926;4.718;2023-02-18T04:03:37;102034.06;;;11.05;100.00
11190;BME280;5651;50.926;4.718;2023-02-18T04:06:03;102016.69;;;11.04;100.00
11190;BME280;5651;50.926;4.718;2023-02-18T04:08:29;102021.81;;;10.98;100.00
11190;BME280;5651;50.926;4.718;2023-02-18T04:10:54;102016.66;;;11.02;100.00
11190;BME280;5651;50.926;4.718;2023-02-18T04:13:20;102021.94;;;11.05;100.00
11190;BME280;5651;50.926;4.718;2023-02-18T04:15:48;102024.50;;;11.02;100.00
11190;BME280;5651;50.926;4.718;2023-02-18T04:18:14;102014.91;;;11.01;100.00
11190;BME280;5651;50.926;4.718;2023-02-18T04:20:40;102007.00;;;10.93;100.00
11190;BME280;5651;50.926;4.718;2023-02-18T04:23:06;102014.91;;;11.00;100.00
11190;BME280;5651;50.926;4.718;2023-02-18T04:25:32;102011.44;;;11.01;100.00
11190;BME280;5651;50.926;4.718;2023-02-18T04:27:58;102004.41;;;10.97;100.00
11190;BME280;5651;50.926;4.718;2023-02-18T04:30:24;102001.88;;;11.03;100.00
11190;BME280;5651;50.926;4.718;2023-02-18T04:32:50;102001.88;;;11.01;100.00
11190;BME280;5651;50.926;4.718;2023-02-18T04:35:15;102003.56;;;10.96;100.00
11190;BME280;5651;50.926;4.718;2023-02-18T04:37:41;101993.09;;;10.94;100.00
11190;BME280;5651;50.926;4.718;2023-02-18T04:40:07;102006.94;;;10.87;100.00
11190;BME280;5651;50.926;4.718;2023-02-18T04:42:33;102017.41;;;10.92;100.00
11190;BME280;5651;50.926;4.718;2023-02-18T04:44:59;102026.13;;;10.96;100.00
11190;BME280;5651;50.926;4.718;2023-02-18T04:47:25;102020.88;;;10.91;100.00
11190;BME280;5651;50.926;4.718;2023-02-18T04:49:51;102017.44;;;10.93;100.00
11190;BME280;5651;50.926;4.718;2023-02-18T04:52:17;102017.44;;;10.93;100.00
11190;BME280;5651;50.926;4.718;2023-02-18T04:54:43;102022.72;;;10.98;100.00
11190;BME280;5651;50.926;4.718;2023-02-18T04:57:09;102022.72;;;10.98;100.00
11190;BME280;5651;50.926;4.718;2023-02-18T04:59:35;102025.34;;;11.00;100.00
11190;BME280;5651;50.926;4.718;2023-02-18T05:02:01;102024.44;;;10.98;100.00
11190;BME280;5651;50.926;4.718;2023-02-18T05:04:27;102027.94;;;11.01;100.00
11190;BME280;5651;50.926;4.718;2023-02-18T05:06:52;102029.66;;;10.99;100.00
11190;BME280;5651;50.926;4.718;2023-02-18T05:09:18;102026.94;;;10.90;100.00
11190;BME280;5651;50.926;4.718;2023-02-18T05:11:44;102030.47;;;10.95;100.00
11190;BME280;5651;50.926;4.718;2023-02-18T05:14:10;102033.09;;;10.95;100.00
11190;BME280;5651;50.926;4.718;2023-02-18T05:16:36;102030.56;;;11.01;100.00
11190;BME280;5651;50.926;4.718;2023-02-18T05:19:01;102029.56;;;10.93;100.00
11190;BME280;5651;50.926;4.718;2023-02-18T05:21:27;102020.88;;;10.91;100.00
11190;BME280;5651;50.926;4.718;2023-02-18T05:23:53;102027.03;;;10.96;100.00
11190;BME280;5651;50.926;4.718;2023-02-18T05:26:18;102015.59;;;10.86;100.00
11190;BME280;5651;50.926;4.718;2023-02-18T05:28:44;102015.66;;;10.91;100.00
11190;BME280;5651;50.926;4.718;2023-02-18T05:31:10;102006.03;;;10.88;100.00
11190;BME280;5651;50.926;4.718;2023-02-18T05:33:36;101996.47;;;10.86;100.00
11190;BME280;5651;50.926;4.718;2023-02-18T05:36:01;102006.88;;;10.83;100.00
11190;BME280;5651;50.926;4.718;2023-02-18T05:38:27;101994.63;;;10.78;100.00
11190;BME280;5651;50.926;4.718;2023-02-18T05:40:54;101992.06;;;10.82;100.00
11190;BME280;5651;50.926;4.718;2023-02-18T05:43:20;101980.81;;;10.84;100.00
11190;BME280;5651;50.926;4.718;2023-02-18T05:45:46;101983.28;;;10.76;100.00
11190;BME280;5651;50.926;4.718;2023-02-18T05:48:12;101990.25;;;10.77;100.00
11190;BME280;5651;50.926;4.718;2023-02-18T05:50:38;101988.41;;;10.69;100.00
11190;BME280;5651;50.926;4.718;2023-02-18T05:53:04;101972.78;;;10.69;100.00
11190;BME280;5651;50.926;4.718;2023-02-18T05:55:29;101978.84;;;10.69;100.00
11190;BME280;5651;50.926;4.718;2023-02-18T05:57:55;101982.31;;;10.67;100.00
11190;BME280;5651;50.926;4.718;2023-02-18T06:00:21;101996.03;;;10.55;100.00
11190;BME280;5651;50.926;4.718;2023-02-18T06:02:47;101990.03;;;10.60;100.00
11190;BME280;5651;50.926;4.718;2023-02-18T06:05:13;101980.44;;;10.56;100.00
11190;BME280;5651;50.926;4.718;2023-02-18T06:07:38;101971.81;;;10.62;100.00
11190;BME280;5651;50.926;4.718;2023-02-18T06:10:05;101981.44;;;10.68;100.00
11190;BME280;5651;50.926;4.718;2023-02-18T06:12:31;101975.34;;;10.66;100.00
11190;BME280;5651;50.926;4.718;2023-02-18T06:14:57;101973.63;;;10.66;100.00
11190;BME280;5651;50.926;4.718;2023-02-18T06:17:22;101973.53;;;10.60;100.00
11190;BME280;5651;50.926;4.718;2023-02-18T06:19:48;101985.69;;;10.59;100.00
11190;BME280;5651;50.926;4.718;2023-02-18T06:22:14;101981.22;;;10.51;100.00
11190;BME280;5651;50.926;4.718;2023-02-18T06:24:40;101975.16;;;10.52;100.00
11190;BME280;5651;50.926;4.718;2023-02-18T06:27:06;101977.06;;;10.64;100.00
11190;BME280;5651;50.926;4.718;2023-02-18T06:29:32;101968.34;;;10.63;100.00
11190;BME280;5651;50.926;4.718;2023-02-18T06:31:58;101968.34;;;10.63;100.00
11190;BME280;5651;50.926;4.718;2023-02-18T06:34:25;101964.75;;;10.55;100.00
11190;BME280;5651;50.926;4.718;2023-02-18T06:36:51;101961.28;;;10.53;100.00
11190;BME280;5651;50.926;4.718;2023-02-18T06:39:17;101982.22;;;10.59;100.00
11190;BME280;5651;50.926;4.718;2023-02-18T06:41:43;101982.16;;;10.56;100.00
11190;BME280;5651;50.926;4.718;2023-02-18T06:44:08;101982.16;;;10.54;100.00
11190;BME280;5651;50.926;4.718;2023-02-18T06:46:36;101977.84;;;10.56;100.00
11190;BME280;5651;50.926;4.718;2023-02-18T06:49:02;101984.84;;;10.60;100.00
11190;BME280;5651;50.926;4.718;2023-02-18T06:51:28;101977.94;;;10.66;100.00
11190;BME280;5651;50.926;4.718;2023-02-18T06:53:54;101981.38;;;10.61;100.00
11190;BME280;5651;50.926;4.718;2023-02-18T06:56:20;101982.97;;;10.52;100.00
11190;BME280;5651;50.926;4.718;2023-02-18T06:58:45;101983.91;;;10.57;100.00
11190;BME280;5651;50.926;4.718;2023-02-18T07:01:11;101984.69;;;10.50;100.00
11190;BME280;5651;50.926;4.718;2023-02-18T07:03:37;101973.44;;;10.54;100.00
11190;BME280;5651;50.926;4.718;2023-02-18T07:06:03;101975.16;;;10.52;100.00
11190;BME280;5651;50.926;4.718;2023-02-18T07:08:29;101978.63;;;10.51;100.00
11190;BME280;5651;50.926;4.718;2023-02-18T07:10:55;101970.94;;;10.61;100.00
11190;BME280;5651;50.926;4.718;2023-02-18T07:13:21;101975.94;;;10.46;100.00
11190;BME280;5651;50.926;4.718;2023-02-18T07:15:47;101962.00;;;10.44;100.00
11190;BME280;5651;50.926;4.718;2023-02-18T07:18:12;101957.69;;;10.44;100.00
11190;BME280;5651;50.926;4.718;2023-02-18T07:20:38;101981.16;;;10.44;100.00
11190;BME280;5651;50.926;4.718;2023-02-18T07:23:04;101979.22;;;10.36;100.00
11190;BME280;5651;50.926;4.718;2023-02-18T07:25:29;101968.97;;;10.43;100.00
11190;BME280;5651;50.926;4.718;2023-02-18T07:27:55;101972.47;;;10.45;100.00
11190;BME280;5651;50.926;4.718;2023-02-18T07:30:21;101973.31;;;10.44;100.00
11190;BME280;5651;50.926;4.718;2023-02-18T07:32:46;101987.22;;;10.43;100.00
11190;BME280;5651;50.926;4.718;2023-02-18T07:35:14;101990.59;;;10.38;100.00
11190;BME280;5651;50.926;4.718;2023-02-18T07:37:46;101988.22;;;10.53;100.00
11190;BME280;5651;50.926;4.718;2023-02-18T07:40:15;101980.38;;;10.52;100.00
11190;BME280;5651;50.926;4.718;2023-02-18T07:42:42;101995.19;;;10.54;100.00
11190;BME280;5651;50.926;4.718;2023-02-18T07:45:08;101993.38;;;10.50;100.00
11190;BME280;5651;50.926;4.718;2023-02-18T07:47:35;101988.06;;;10.44;100.00
11190;BME280;5651;50.926;4.718;2023-02-18T07:50:00;101989.13;;;10.55;100.00
11190;BME280;5651;50.926;4.718;2023-02-18T07:52:26;101979.53;;;10.53;100.00
11190;BME280;5651;50.926;4.718;2023-02-18T07:54:52;101994.28;;;10.52;100.00
11190;BME280;5651;50.926;4.718;2023-02-18T07:57:17;101997.78;;;10.54;100.00
11190;BME280;5651;50.926;4.718;2023-02-18T07:59:43;101998.78;;;10.62;100.00
11190;BME280;5651;50.926;4.718;2023-02-18T08:02:17;101992.63;;;10.59;100.00
11190;BME280;5651;50.926;4.718;2023-02-18T08:04:43;101992.66;;;10.60;100.00
11190;BME280;5651;50.926;4.718;2023-02-18T08:07:12;101991.84;;;10.65;100.00
11190;BME280;5651;50.926;4.718;2023-02-18T08:09:39;102001.44;;;10.67;100.00
11190;BME280;5651;50.926;4.718;2023-02-18T08:12:05;102006.50;;;10.56;100.00
11190;BME280;5651;50.926;4.718;2023-02-18T08:14:30;102004.91;;;10.66;100.00
11190;BME280;5651;50.926;4.718;2023-02-18T08:16:56;101991.94;;;10.72;100.00
11190;BME280;5651;50.926;4.718;2023-02-18T08:19:22;102011.88;;;10.67;100.00
11190;BME280;5651;50.926;4.718;2023-02-18T08:21:47;102011.94;;;10.73;100.00
11190;BME280;5651;50.926;4.718;2023-02-18T08:24:13;102011.03;;;10.70;100.00
11190;BME280;5651;50.926;4.718;2023-02-18T08:26:39;102018.88;;;10.71;100.00
11190;BME280;5651;50.926;4.718;2023-02-18T08:29:05;102015.47;;;10.75;100.00
11190;BME280;5651;50.926;4.718;2023-02-18T08:31:31;102018.88;;;10.73;100.00
11190;BME280;5651;50.926;4.718;2023-02-18T08:33:58;102019.84;;;10.78;100.00
11190;BME280;5651;50.926;4.718;2023-02-18T08:36:27;102016.34;;;10.77;100.00
11190;BME280;5651;50.926;4.718;2023-02-18T08:38:53;102014.56;;;10.76;100.00
11190;BME280;5651;50.926;4.718;2023-02-18T08:41:19;102012.84;;;10.75;100.00
11190;BME280;5651;50.926;4.718;2023-02-18T08:43:46;102009.50;;;10.86;100.00
11190;BME280;5651;50.926;4.718;2023-02-18T08:46:12;102003.44;;;10.88;100.00
11190;BME280;5651;50.926;4.718;2023-02-18T08:48:38;101999.97;;;10.88;100.00
11190;BME280;5651;50.926;4.718;2023-02-18T08:51:34;101999.00;;;10.81;100.00
11190;BME280;5651;50.926;4.718;2023-02-18T08:54:00;102003.41;;;10.85;100.00
11190;BME280;5651;50.926;4.718;2023-02-18T08:56:25;101997.28;;;10.82;100.00
11190;BME280;5651;50.926;4.718;2023-02-18T08:58:51;101994.75;;;10.88;100.00
11190;BME280;5651;50.926;4.718;2023-02-18T09:01:17;101985.25;;;10.91;100.00
11190;BME280;5651;50.926;4.718;2023-02-18T09:03:42;101982.69;;;10.94;100.00
11190;BME280;5651;50.926;4.718;2023-02-18T09:06:08;101974.81;;;10.91;100.00
11190;BME280;5651;50.926;4.718;2023-02-18T09:08:34;101980.94;;;10.97;100.00
11190;BME280;5651;50.926;4.718;2023-02-18T09:11:01;101974.03;;;11.00;100.00
11190;BME280;5651;50.926;4.718;2023-02-18T09:13:29;101974.16;;;11.09;100.00
11190;BME280;5651;50.926;4.718;2023-02-18T09:16:06;101981.06;;;11.04;100.00
11190;BME280;5651;50.926;4.718;2023-02-18T09:18:32;101983.72;;;11.09;100.00
11190;BME280;5651;50.926;4.718;2023-02-18T09:21:00;101980.25;;;11.12;100.00
11190;BME280;5651;50.926;4.718;2023-02-18T09:23:29;101987.19;;;11.11;100.00
11190;BME280;5651;50.926;4.718;2023-02-18T09:25:56;101991.63;;;11.17;100.00
11190;BME280;5651;50.926;4.718;2023-02-18T09:28:22;101976.88;;;11.19;100.00
11190;BME280;5651;50.926;4.718;2023-02-18T09:30:48;101996.91;;;11.23;100.00
11190;BME280;5651;50.926;4.718;2023-02-18T09:33:14;101997.88;;;11.31;100.00
11190;BME280;5651;50.926;4.718;2023-02-18T09:35:41;102010.00;;;11.29;100.00
11190;BME280;5651;50.926;4.718;2023-02-18T09:38:12;101991.72;;;11.24;100.00
11190;BME280;5651;50.926;4.718;2023-02-18T09:40:42;101992.56;;;11.23;100.00
11190;BME280;5651;50.926;4.718;2023-02-18T09:43:18;102005.63;;;11.25;100.00
11190;BME280;5651;50.926;4.718;2023-02-18T09:45:48;102008.16;;;11.17;100.00
11190;BME280;5651;50.926;4.718;2023-02-18T09:48:14;102009.09;;;11.24;100.00
11190;BME280;5651;50.926;4.718;2023-02-18T09:50:40;102001.28;;;11.25;100.00
11190;BME280;5651;50.926;4.718;2023-02-18T09:53:10;101999.50;;;11.21;100.00
11190;BME280;5651;50.926;4.718;2023-02-18T09:55:38;102016.06;;;11.25;100.00
11190;BME280;5651;50.926;4.718;2023-02-18T09:58:18;102006.53;;;11.29;100.00
11190;BME280;5651;50.926;4.718;2023-02-18T10:00:48;102007.50;;;11.35;100.00
11190;BME280;5651;50.926;4.718;2023-02-18T10:03:23;102008.28;;;11.30;100.00
11190;BME280;5651;50.926;4.718;2023-02-18T10:05:56;102005.69;;;11.30;100.00
11190;BME280;5651;50.926;4.718;2023-02-18T10:08:34;102009.19;;;11.33;100.00
11190;BME280;5651;50.926;4.718;2023-02-18T10:11:01;102006.66;;;11.38;100.00
11190;BME280;5651;50.926;4.718;2023-02-18T10:13:33;102003.19;;;11.40;100.00
11190;BME280;5651;50.926;4.718;2023-02-18T10:16:00;102007.44;;;11.34;100.00
11190;BME280;5651;50.926;4.718;2023-02-18T10:18:51;102012.72;;;11.35;100.00
11190;BME280;5651;50.926;4.718;2023-02-18T10:21:18;102009.22;;;11.35;100.00
11190;BME280;5651;50.926;4.718;2023-02-18T10:23:57;102011.06;;;11.44;100.00
11190;BME280;5651;50.926;4.718;2023-02-18T10:26:24;102011.94;;;11.46;100.00
11190;BME280;5651;50.926;4.718;2023-02-18T10:28:50;102000.53;;;11.37;100.00
11190;BME280;5651;50.926;4.718;2023-02-18T10:31:27;102011.06;;;11.47;100.00
11190;BME280;5651;50.926;4.718;2023-02-18T10:33:59;102013.72;;;11.50;100.00
11190;BME280;5651;50.926;4.718;2023-02-18T10:39:44;102014.59;;;11.52;100.00
11190;BME280;5651;50.926;4.718;2023-02-18T10:45:37;102011.28;;;11.65;100.00
11190;BME280;5651;50.926;4.718;2023-02-18T10:48:16;102017.31;;;11.58;100.00
11190;BME280;5651;50.926;4.718;2023-02-18T10:50:47;102017.31;;;11.60;100.00
11190;BME280;5651;50.926;4.718;2023-02-18T10:53:24;102023.50;;;11.69;100.00
11190;BME280;5651;50.926;4.718;2023-02-18T10:55:55;102030.41;;;11.64;100.00
11190;BME280;5651;50.926;4.718;2023-02-18T11:00:48;102012.16;;;11.66;100.00
11190;BME280;5651;50.926;4.718;2023-02-18T11:03:17;102023.50;;;11.69;100.00
11190;BME280;5651;50.926;4.718;2023-02-18T11:05:45;102021.78;;;11.74;100.00
11190;BME280;5651;50.926;4.718;2023-02-18T11:08:18;102021.88;;;11.81;100.00
11190;BME280;5651;50.926;4.718;2023-02-18T11:10:45;102031.38;;;11.76;100.00
11190;BME280;5651;50.926;4.718;2023-02-18T11:13:16;102019.19;;;11.73;100.00
11190;BME280;5651;50.926;4.718;2023-02-18T11:15:58;102020.97;;;11.79;100.00
11190;BME280;5651;50.926;4.718;2023-02-18T11:21:01;102034.09;;;11.83;100.00
11190;BME280;5651;50.926;4.718;2023-02-18T11:23:28;102031.41;;;11.77;100.00
11190;BME280;5651;50.926;4.718;2023-02-18T11:25:58;102034.09;;;11.83;100.00
11190;BME280;5651;50.926;4.718;2023-02-18T11:30:59;102046.25;;;11.81;100.00
11190;BME280;5651;50.926;4.718;2023-02-18T11:33:36;102018.41;;;11.86;100.00
11190;BME280;5651;50.926;4.718;2023-02-18T11:36:15;102029.75;;;11.85;100.00
11190;BME280;5651;50.926;4.718;2023-02-18T11:38:49;102028.84;;;11.83;100.00
11190;BME280;5651;50.926;4.718;2023-02-18T11:41:19;102020.13;;;11.78;100.00
11190;BME280;5651;50.926;4.718;2023-02-18T11:43:48;102020.13;;;11.83;100.00
11190;BME280;5651;50.926;4.718;2023-02-18T11:46:20;102021.88;;;11.84;100.00
11190;BME280;5651;50.926;4.718;2023-02-18T11:48:47;102028.00;;;11.84;100.00
11190;BME280;5651;50.926;4.718;2023-02-18T11:51:26;102025.34;;;11.83;100.00
11190;BME280;5651;50.926;4.718;2023-02-18T11:54:01;102011.44;;;11.84;100.00
11190;BME280;5651;50.926;4.718;2023-02-18T11:56:34;102012.34;;;11.86;100.00
11190;BME280;5651;50.926;4.718;2023-02-18T11:59:01;102022.84;;;11.94;100.00
11190;BME280;5651;50.926;4.718;2023-02-18T12:01:44;102005.41;;;11.89;100.00
11190;BME280;5651;50.926;4.718;2023-02-18T12:04:15;102002.91;;;12.00;100.00
11190;BME280;5651;50.926;4.718;2023-02-18T12:12:02;102003.78;;;12.01;100.00
11190;BME280;5651;50.926;4.718;2023-02-18T12:14:31;102006.50;;;12.13;100.00
11190;BME280;5651;50.926;4.718;2023-02-18T12:17:20;102006.47;;;12.09;100.00
11190;BME280;5651;50.926;4.718;2023-02-18T12:22:45;102009.97;;;12.14;100.00
11190;BME280;5651;50.926;4.718;2023-02-18T12:42:19;101996.16;;;12.27;100.00
11190;BME280;5651;50.926;4.718;2023-02-18T12:48:35;102009.22;;;12.32;100.00
11190;BME280;5651;50.926;4.718;2023-02-18T13:02:23;102009.28;;;12.33;100.00
11190;BME280;5651;50.926;4.718;2023-02-18T13:07:35;102014.47;;;12.29;100.00
11190;BME280;5651;50.926;4.718;2023-02-18T13:10:41;102015.31;;;12.28;100.00
11190;BME280;5651;50.926;4.718;2023-02-18T13:13:20;102014.47;;;12.30;100.00
11190;BME280;5651;50.926;4.718;2023-02-18T13:15:58;102018.81;;;12.30;100.00
11190;BME280;5651;50.926;4.718;2023-02-18T13:19:00;102024.00;;;12.27;100.00
11190;BME280;5651;50.926;4.718;2023-02-18T13:21:17;102019.69;;;12.27;100.00
11190;BME280;5651;50.926;4.718;2023-02-18T13:23:57;102014.41;;;12.26;100.00
11190;BME280;5651;50.926;4.718;2023-02-18T13:26:25;102012.53;;;12.08;100.00
11190;BME280;5651;50.926;4.718;2023-02-18T13:34:38;102004.72;;;12.08;100.00
11190;BME280;5651;50.926;4.718;2023-02-18T13:37:21;102002.13;;;12.12;100.00
11190;BME280;5651;50.926;4.718;2023-02-18T13:39:56;102001.34;;;12.24;100.00
11190;BME280;5651;50.926;4.718;2023-02-18T13:42:32;102008.25;;;12.17;100.00
11190;BME280;5651;50.926;4.718;2023-02-18T13:47:46;102011.69;;;12.10;100.00
11190;BME280;5651;50.926;4.718;2023-02-18T13:55:51;102005.53;;;12.02;100.00
11190;BME280;5651;50.926;4.718;2023-02-18T13:58:22;102010.56;;;11.85;100.00
11190;BME280;5651;50.926;4.718;2023-02-18T14:00:54;102013.19;;;11.83;100.00
11190;BME280;5651;50.926;4.718;2023-02-18T14:03:33;102009.72;;;11.86;100.00
11190;BME280;5651;50.926;4.718;2023-02-18T14:06:01;102000.09;;;11.79;100.00
11190;BME280;5651;50.926;4.718;2023-02-18T14:08:38;101986.22;;;11.87;100.00
11190;BME280;5651;50.926;4.718;2023-02-18T14:13:41;102000.13;;;11.86;100.00
11190;BME280;5651;50.926;4.718;2023-02-18T14:16:08;102007.00;;;11.75;100.00
11190;BME280;5651;50.926;4.718;2023-02-18T14:26:16;101992.28;;;11.82;100.00
11190;BME280;5651;50.926;4.718;2023-02-18T14:34:05;101995.00;;;11.96;100.00
11190;BME280;5651;50.926;4.718;2023-02-18T14:42:19;101985.41;;;11.92;100.00
11190;BME280;5651;50.926;4.718;2023-02-18T14:48:04;101990.53;;;11.81;100.00
11190;BME280;5651;50.926;4.718;2023-02-18T14:50:37;101992.28;;;11.83;100.00
11190;BME280;5651;50.926;4.718;2023-02-18T14:53:14;101989.63;;;11.79;100.00
11190;BME280;5651;50.926;4.718;2023-02-18T14:55:45;101991.41;;;11.83;100.00
11190;BME280;5651;50.926;4.718;2023-02-18T15:00:47;101973.16;;;11.86;100.00
11190;BME280;5651;50.926;4.718;2023-02-18T15:03:16;101971.47;;;11.93;100.00
11190;BME280;5651;50.926;4.718;2023-02-18T15:05:44;101970.59;;;11.92;100.00
11190;BME280;5651;50.926;4.718;2023-02-18T15:08:19;101971.50;;;11.96;100.00
11190;BME280;5651;50.926;4.718;2023-02-18T15:11:01;101974.06;;;11.91;100.00
11190;BME280;5651;50.926;4.718;2023-02-18T15:13:37;101973.31;;;12.01;100.00
11190;BME280;5651;50.926;4.718;2023-02-18T15:16:12;101977.69;;;12.04;100.00
11190;BME280;5651;50.926;4.718;2023-02-18T15:18:44;101976.00;;;12.11;100.00
11190;BME280;5651;50.926;4.718;2023-02-18T15:21:29;101975.16;;;12.12;100.00
11190;BME280;5651;50.926;4.718;2023-02-18T15:24:04;101976.00;;;12.12;100.00
11190;BME280;5651;50.926;4.718;2023-02-18T15:26:30;101984.72;;;12.13;100.00
11190;BME280;5651;50.926;4.718;2023-02-18T15:31:25;101963.66;;;11.96;100.00
11190;BME280;5651;50.926;4.718;2023-02-18T15:33:51;101965.41;;;11.95;100.00
11190;BME280;5651;50.926;4.718;2023-02-18T15:36:17;101974.09;;;11.96;100.00